Time;durP1;ratioP1;P1;durP2;ratioP2;P2;SDS_P1;SDS_P2;PMS_P1;PMS_P2;Temp;Humidity;BMP_temperature;BMP_pressure;BME280_temperature;BME280_humidity;BME280_pressure;Samples;Min_cycle;Max_cycle;Signal;HPM_P1;HPM_P2
2022/01/16 00:05:02;;;;;;;22.38;8.88;;;;;9.30;102143.00;;;;5029882;28;20687;-79
2022/01/16 00:07:30;;;;;;;17.95;9.02;;;;;9.30;102153.00;;;;5022176;28;20622;-79
2022/01/16 00:09:57;;;;;;;14.13;8.13;;;;;9.30;102141.00;;;;5013598;28;20256;-80
2022/01/16 00:12:24;;;;;;;18.00;9.75;;;;;9.30;102144.00;;;;5021583;28;20698;-80
2022/01/16 00:14:53;;;;;;;16.35;8.43;;;;;9.20;102162.00;;;;5022642;28;20544;-79
2022/01/16 00:17:22;;;;;;;18.75;8.90;;;;;9.30;102167.00;;;;5010200;28;20236;-80
2022/01/16 00:19:50;;;;;;;17.73;9.05;;;;;9.30;102150.00;;;;5016366;28;20224;-79
2022/01/16 00:22:17;;;;;;;16.67;8.90;;;;;9.30;102147.00;;;;5024165;28;20575;-80
2022/01/16 00:24:44;;;;;;;16.67;8.35;;;;;9.30;102137.00;;;;5029592;28;20233;-80
2022/01/16 00:27:12;;;;;;;17.48;8.82;;;;;9.30;102140.00;;;;5021067;28;21280;-79
2022/01/16 00:29:39;;;;;;;17.33;9.13;;;;;9.30;102133.00;;;;5010024;28;20200;-79
2022/01/16 00:32:09;;;;;;;16.50;8.73;;;;;9.30;102136.00;;;;5010471;28;20196;-79
2022/01/16 00:34:36;;;;;;;14.68;7.57;;;;;9.30;102130.00;;;;5010722;28;20206;-79
2022/01/16 00:37:04;;;;;;;15.40;8.55;;;;;9.30;102141.00;;;;5012086;28;20196;-80
2022/01/16 00:39:31;;;;;;;19.48;9.65;;;;;9.30;102147.00;;;;5009060;28;20197;-79
2022/01/16 00:41:58;;;;;;;17.20;8.73;;;;;9.30;102131.00;;;;5011472;28;20208;-79
2022/01/16 00:44:25;;;;;;;18.73;8.73;;;;;9.30;102138.00;;;;5011517;28;20581;-80
2022/01/16 00:46:52;;;;;;;15.68;9.02;;;;;9.30;102128.00;;;;5022958;28;20189;-80
2022/01/16 00:49:21;;;;;;;16.02;8.13;;;;;9.30;102128.00;;;;5021723;28;20564;-80
2022/01/16 00:51:48;;;;;;;18.88;9.30;;;;;9.30;102111.00;;;;5009562;28;20211;-80
2022/01/16 00:54:15;;;;;;;17.65;8.88;;;;;9.30;102100.00;;;;5024889;28;20223;-80
2022/01/16 00:56:43;;;;;;;17.08;8.68;;;;;9.30;102103.00;;;;5026413;28;20192;-80
2022/01/16 00:59:10;;;;;;;17.35;9.50;;;;;9.30;102089.00;;;;5012412;28;20208;-80
2022/01/16 01:01:37;;;;;;;20.45;8.02;;;;;9.30;102073.00;;;;5016928;28;20195;-80
2022/01/16 01:04:04;;;;;;;16.67;8.63;;;;;9.30;102073.00;;;;5014132;28;20267;-80
2022/01/16 01:06:33;;;;;;;19.58;8.77;;;;;9.20;102066.00;;;;5008747;28;20201;-80
2022/01/16 01:09:00;;;;;;;16.85;9.30;;;;;9.20;102093.00;;;;5012281;28;20185;-80
2022/01/16 01:11:29;;;;;;;17.05;9.35;;;;;9.30;102080.00;;;;5026891;28;20188;-80
2022/01/16 01:14:15;;;;;;;18.95;10.27;;;;;9.30;102098.00;;;;5010402;28;20312;-80
2022/01/16 01:16:51;;;;;;;15.85;8.70;;;;;9.30;102084.00;;;;5013088;28;20283;-80
2022/01/16 01:19:20;;;;;;;16.33;9.05;;;;;9.30;102099.00;;;;5011935;28;20232;-80
2022/01/16 01:21:49;;;;;;;15.02;8.25;;;;;9.20;102089.00;;;;5026186;28;20200;-80
2022/01/16 01:24:16;;;;;;;13.40;7.75;;;;;9.30;102084.00;;;;5013628;28;20883;-80
2022/01/16 01:26:52;;;;;;;15.68;8.73;;;;;9.30;102072.00;;;;5026284;28;20204;-80
2022/01/16 01:29:21;;;;;;;15.70;8.23;;;;;9.30;102077.00;;;;5017643;28;20196;-80
2022/01/16 01:31:49;;;;;;;18.20;9.30;;;;;9.30;102081.00;;;;5028291;28;20674;-80
2022/01/16 01:34:16;;;;;;;18.48;8.65;;;;;9.30;102093.00;;;;5008954;28;20263;-80
2022/01/16 01:36:48;;;;;;;16.95;8.90;;;;;9.30;102092.00;;;;5025253;28;20689;-80
2022/01/16 01:39:16;;;;;;;16.77;9.23;;;;;9.30;102077.00;;;;5028161;28;20917;-80
2022/01/16 01:41:44;;;;;;;16.67;8.70;;;;;9.30;102016.00;;;;5026829;28;20200;-80
2022/01/16 01:52:26;;;;;;;15.93;8.25;;;;;9.30;102015.00;;;;5009772;28;20777;-80
2022/01/16 01:54:55;;;;;;;16.58;8.57;;;;;9.30;102036.00;;;;5007901;28;20223;-80
2022/01/16 01:57:22;;;;;;;19.67;9.38;;;;;9.30;102057.00;;;;5010976;28;20702;-80
2022/01/16 01:59:49;;;;;;;18.40;10.30;;;;;9.30;102055.00;;;;5012533;28;20719;-80
2022/01/16 02:02:17;;;;;;;15.77;9.15;;;;;9.30;102075.00;;;;5013259;28;20212;-80
2022/01/16 02:04:44;;;;;;;17.60;9.27;;;;;9.30;102068.00;;;;5031700;28;20224;-80
2022/01/16 02:07:12;;;;;;;16.98;9.27;;;;;9.30;102066.00;;;;5032409;28;20215;-80
2022/01/16 02:09:39;;;;;;;25.58;8.50;;;;;9.30;102078.00;;;;5019394;28;20212;-80
2022/01/16 02:12:09;;;;;;;16.65;8.52;;;;;9.30;102094.00;;;;5026171;28;20200;-80
2022/01/16 02:14:51;;;;;;;22.45;10.48;;;;;9.30;102078.00;;;;5032123;28;20196;-81
2022/01/16 02:28:24;;;;;;;20.35;10.02;;;;;9.30;102095.00;;;;5028049;28;20700;-80
2022/01/16 02:31:15;;;;;;;21.60;10.27;;;;;9.30;102095.00;;;;5027029;28;20208;-80
2022/01/16 02:36:34;;;;;;;20.95;9.68;;;;;9.30;102098.00;;;;5021202;28;20207;-80
2022/01/16 02:39:07;;;;;;;18.73;9.48;;;;;9.20;102092.00;;;;5015026;28;20204;-80
2022/01/16 02:41:35;;;;;;;17.10;9.07;;;;;9.30;102084.00;;;;5011748;28;20605;-79
2022/01/16 02:44:12;;;;;;;21.15;11.15;;;;;9.30;102083.00;;;;5015094;28;20315;-80
2022/01/16 02:46:39;;;;;;;22.77;10.50;;;;;9.30;102088.00;;;;5010882;28;20193;-80
2022/01/16 02:49:22;;;;;;;19.58;9.50;;;;;9.20;102095.00;;;;5011452;28;20232;-80
2022/01/16 02:51:51;;;;;;;20.25;9.88;;;;;9.30;102081.00;;;;5011073;28;20259;-80
2022/01/16 02:54:20;;;;;;;16.20;8.48;;;;;9.30;102076.00;;;;5027553;28;20205;-80
2022/01/16 02:56:48;;;;;;;22.75;10.40;;;;;9.30;102077.00;;;;5020143;28;20674;-80
2022/01/16 02:59:17;;;;;;;23.02;10.30;;;;;9.40;102072.00;;;;5011698;28;20204;-79
2022/01/16 03:01:46;;;;;;;19.38;9.77;;;;;9.40;102062.00;;;;5030957;28;20284;-80
2022/01/16 03:04:13;;;;;;;19.45;9.55;;;;;9.40;102064.00;;;;5011421;28;20236;-80
2022/01/16 03:06:40;;;;;;;19.80;9.70;;;;;9.40;102051.00;;;;5011259;28;20208;-79
2022/01/16 03:09:09;;;;;;;18.40;9.57;;;;;9.40;102053.00;;;;5010037;28;20208;-80
2022/01/16 03:11:45;;;;;;;20.20;10.75;;;;;9.40;102049.00;;;;5011973;28;20203;-80
2022/01/16 03:14:14;;;;;;;21.48;10.10;;;;;9.40;102048.00;;;;5013998;28;20220;-80
2022/01/16 03:16:46;;;;;;;18.23;9.23;;;;;9.40;102050.00;;;;5023948;28;20236;-80
2022/01/16 03:22:02;;;;;;;18.25;9.88;;;;;9.50;102029.00;;;;5020582;28;20553;-80
2022/01/16 03:24:34;;;;;;;17.88;8.55;;;;;9.40;102036.00;;;;5011034;28;20271;-80
2022/01/16 03:27:05;;;;;;;17.52;8.90;;;;;9.50;102041.00;;;;5029232;28;20659;-80
2022/01/16 03:29:33;;;;;;;23.38;10.50;;;;;9.50;102035.00;;;;5030075;28;20594;-80
2022/01/16 03:32:02;;;;;;;19.67;9.85;;;;;9.50;102028.00;;;;5016017;28;20204;-81
2022/01/16 03:34:29;;;;;;;21.25;10.50;;;;;9.50;102033.00;;;;5018205;28;20201;-81
2022/01/16 03:36:57;;;;;;;21.42;10.38;;;;;9.60;102037.00;;;;5019126;28;20573;-80
2022/01/16 03:39:24;;;;;;;18.50;9.32;;;;;9.60;102027.00;;;;5014292;28;20200;-80
2022/01/16 03:41:52;;;;;;;22.33;9.82;;;;;9.60;102020.00;;;;5010545;28;20208;-80
2022/01/16 03:44:20;;;;;;;22.42;9.98;;;;;9.60;102013.00;;;;5010424;28;20220;-80
2022/01/16 03:46:48;;;;;;;21.27;9.55;;;;;9.60;102006.00;;;;5010673;28;20204;-80
2022/01/16 03:49:18;;;;;;;21.25;9.23;;;;;9.60;102008.00;;;;5010116;28;20197;-80
2022/01/16 03:51:47;;;;;;;20.20;10.32;;;;;9.60;102013.00;;;;5014996;28;20204;-80
2022/01/16 03:54:17;;;;;;;19.75;9.85;;;;;9.60;102010.00;;;;5019742;28;20217;-80
2022/01/16 03:56:45;;;;;;;17.98;9.02;;;;;9.60;102001.00;;;;5010649;28;20683;-80
2022/01/16 03:59:12;;;;;;;18.50;8.88;;;;;9.60;102000.00;;;;5010946;28;20215;-80
2022/01/16 04:01:42;;;;;;;20.35;9.05;;;;;9.60;101999.00;;;;5010310;28;20201;-80
2022/01/16 04:04:10;;;;;;;22.40;10.55;;;;;9.70;102008.00;;;;5012371;28;20220;-80
2022/01/16 04:06:38;;;;;;;20.83;9.90;;;;;9.70;102008.00;;;;5010257;28;20682;-80
2022/01/16 04:09:05;;;;;;;21.40;9.93;;;;;9.70;102003.00;;;;5020113;28;20197;-80
2022/01/16 04:11:34;;;;;;;16.98;9.02;;;;;9.70;102004.00;;;;5010458;28;20200;-80
2022/01/16 04:14:07;;;;;;;21.55;10.07;;;;;9.70;102009.00;;;;5009285;28;20907;-81
2022/01/16 04:16:35;;;;;;;19.05;10.25;;;;;9.70;102005.00;;;;5022009;28;20195;-80
2022/01/16 04:19:05;;;;;;;18.85;9.90;;;;;9.70;102008.00;;;;5019905;28;20196;-80
2022/01/16 04:21:32;;;;;;;21.30;11.07;;;;;9.80;102009.00;;;;5009871;28;20197;-80
2022/01/16 04:24:00;;;;;;;26.15;11.88;;;;;9.80;102006.00;;;;5022420;28;20699;-80
2022/01/16 04:26:28;;;;;;;23.00;11.68;;;;;9.80;102004.00;;;;5010133;28;20779;-80
2022/01/16 04:28:55;;;;;;;20.65;10.52;;;;;9.70;101996.00;;;;5010045;28;20233;-80
2022/01/16 04:31:23;;;;;;;21.52;11.05;;;;;9.70;102010.00;;;;5017963;28;20203;-80
2022/01/16 04:33:51;;;;;;;22.17;11.35;;;;;9.80;102004.00;;;;5020887;28;20628;-80
2022/01/16 04:36:19;;;;;;;18.95;10.43;;;;;9.80;102007.00;;;;5020090;28;20209;-80
2022/01/16 04:38:49;;;;;;;21.77;10.85;;;;;9.80;102006.00;;;;5025620;28;20197;-80
2022/01/16 04:44:03;;;;;;;21.20;11.02;;;;;9.80;102002.00;;;;5009632;28;20278;-80
2022/01/16 04:46:31;;;;;;;26.27;12.98;;;;;9.80;102007.00;;;;5009957;28;20281;-80
2022/01/16 04:49:00;;;;;;;24.02;12.45;;;;;9.80;102003.00;;;;5013985;28;20200;-80
2022/01/16 04:51:31;;;;;;;23.80;12.48;;;;;9.80;101988.00;;;;5008317;28;20201;-80
2022/01/16 04:53:58;;;;;;;27.42;13.43;;;;;9.90;101998.00;;;;5019181;28;20208;-80
2022/01/16 04:56:25;;;;;;;21.77;11.32;;;;;9.90;101998.00;;;;5027922;28;20196;-80
2022/01/16 04:58:53;;;;;;;24.15;12.27;;;;;9.90;101994.00;;;;5014513;28;20212;-80
2022/01/16 05:01:21;;;;;;;20.70;11.93;;;;;9.90;101991.00;;;;5019727;28;20574;-80
2022/01/16 05:03:48;;;;;;;25.10;11.70;;;;;9.90;101998.00;;;;5008903;28;20192;-80
2022/01/16 05:06:15;;;;;;;24.45;12.75;;;;;9.90;101989.00;;;;5012900;28;20225;-80
2022/01/16 05:08:44;;;;;;;25.27;12.43;;;;;9.90;101984.00;;;;5027411;28;20219;-80
2022/01/16 05:11:13;;;;;;;23.52;13.23;;;;;9.90;101985.00;;;;5025278;28;20196;-80
2022/01/16 05:16:38;;;;;;;25.85;14.00;;;;;9.90;101984.00;;;;5022909;28;20207;-80
2022/01/16 05:19:07;;;;;;;25.23;12.93;;;;;9.90;101990.00;;;;5018339;28;20856;-80
2022/01/16 05:21:35;;;;;;;26.70;13.60;;;;;9.90;101990.00;;;;5011023;28;20674;-80
2022/01/16 05:24:08;;;;;;;22.02;12.40;;;;;9.90;101985.00;;;;5020514;28;20219;-80
2022/01/16 05:26:36;;;;;;;22.60;12.60;;;;;9.90;101983.00;;;;5028178;28;20195;-80
2022/01/16 05:29:04;;;;;;;21.52;12.90;;;;;9.90;101983.00;;;;5014002;28;20203;-80
2022/01/16 05:31:32;;;;;;;24.75;13.27;;;;;9.90;101991.00;;;;5008279;28;20215;-80
2022/01/16 05:33:59;;;;;;;24.67;13.43;;;;;9.90;101986.00;;;;5008822;28;20201;-80
2022/01/16 05:36:26;;;;;;;24.17;13.10;;;;;9.90;101992.00;;;;5013520;28;20201;-80
2022/01/16 05:38:54;;;;;;;24.88;14.30;;;;;9.90;101987.00;;;;5011855;28;20204;-80
2022/01/16 05:41:23;;;;;;;24.10;14.35;;;;;9.90;101986.00;;;;5011372;28;20193;-80
2022/01/16 05:43:52;;;;;;;26.25;14.40;;;;;10.00;101982.00;;;;5017727;28;20641;-80
2022/01/16 05:46:19;;;;;;;26.40;13.98;;;;;10.00;101983.00;;;;5023617;28;20221;-80
2022/01/16 05:48:46;;;;;;;24.73;13.30;;;;;10.00;101991.00;;;;5009661;28;20204;-80
2022/01/16 05:51:15;;;;;;;29.88;15.57;;;;;10.00;102002.00;;;;5018881;28;20212;-81
2022/01/16 05:53:44;;;;;;;27.15;15.43;;;;;10.00;101992.00;;;;5008408;28;20193;-80
2022/01/16 05:56:11;;;;;;;25.05;14.13;;;;;10.00;101999.00;;;;5008983;28;20682;-80
2022/01/16 05:58:40;;;;;;;26.15;14.70;;;;;10.00;102000.00;;;;5016140;28;20203;-81
2022/01/16 06:01:07;;;;;;;25.35;14.27;;;;;10.00;101998.00;;;;5014799;28;20197;-80
2022/01/16 06:03:34;;;;;;;26.80;14.07;;;;;10.00;102002.00;;;;5023206;28;20204;-80
2022/01/16 06:06:02;;;;;;;26.90;14.73;;;;;10.00;101993.00;;;;5027536;28;20220;-80
2022/01/16 06:08:29;;;;;;;24.80;13.88;;;;;10.00;101991.00;;;;5008405;28;20211;-80
2022/01/16 06:10:57;;;;;;;27.42;14.25;;;;;10.00;101991.00;;;;5008171;28;20200;-80
2022/01/16 06:13:24;;;;;;;26.63;13.88;;;;;10.00;101997.00;;;;5007979;28;20216;-80
2022/01/16 06:15:52;;;;;;;27.23;14.90;;;;;10.00;101996.00;;;;5013422;28;20197;-80
2022/01/16 06:18:20;;;;;;;26.83;14.35;;;;;10.00;101999.00;;;;5017493;28;20207;-80
2022/01/16 06:20:47;;;;;;;25.90;14.45;;;;;10.00;101993.00;;;;5022837;28;20303;-80
2022/01/16 06:23:16;;;;;;;25.40;13.95;;;;;10.00;101991.00;;;;5020041;28;20313;-80
2022/01/16 06:25:44;;;;;;;25.00;14.55;;;;;10.10;101988.00;;;;5012250;28;20321;-80
2022/01/16 06:28:12;;;;;;;23.17;14.30;;;;;10.10;101989.00;;;;5027242;28;20601;-81
2022/01/16 06:30:40;;;;;;;27.70;14.93;;;;;10.00;101994.00;;;;5018506;28;20209;-81
2022/01/16 06:33:09;;;;;;;24.80;14.18;;;;;10.00;101996.00;;;;5008432;28;20201;-81
2022/01/16 06:35:37;;;;;;;24.65;14.65;;;;;10.00;102003.00;;;;5016727;28;20203;-81
2022/01/16 06:38:05;;;;;;;22.13;14.13;;;;;10.10;102007.00;;;;5016668;28;20685;-81
2022/01/16 06:40:32;;;;;;;25.33;14.10;;;;;10.10;102007.00;;;;5010111;28;20699;-81
2022/01/16 06:42:59;;;;;;;23.98;14.45;;;;;10.10;102008.00;;;;5009409;28;20573;-80
2022/01/16 06:45:28;;;;;;;29.98;14.88;;;;;10.10;102005.00;;;;5011375;28;20221;-80
2022/01/16 06:47:55;;;;;;;22.65;13.88;;;;;10.10;102017.00;;;;5011493;28;20225;-81
2022/01/16 06:50:24;;;;;;;23.65;14.65;;;;;10.10;102016.00;;;;5022389;28;20200;-80
2022/01/16 06:52:51;;;;;;;21.50;14.73;;;;;10.00;102012.00;;;;5014987;28;20636;-81
2022/01/16 06:55:18;;;;;;;25.52;14.77;;;;;10.10;102030.00;;;;5019214;28;20667;-80
2022/01/16 06:57:46;;;;;;;22.30;14.45;;;;;10.10;102030.00;;;;5018760;28;20197;-81
2022/01/16 07:00:13;;;;;;;24.15;14.25;;;;;10.10;102036.00;;;;5028652;28;20200;-81
2022/01/16 07:02:41;;;;;;;24.38;13.98;;;;;10.10;102030.00;;;;5012018;28;20201;-80
2022/01/16 07:05:12;;;;;;;24.63;14.93;;;;;10.00;102037.00;;;;5014149;28;20224;-81
2022/01/16 07:07:41;;;;;;;26.60;14.88;;;;;10.10;102032.00;;;;5021686;28;20945;-81
2022/01/16 07:10:09;;;;;;;24.45;14.05;;;;;10.10;102036.00;;;;5011211;28;20196;-81
2022/01/16 07:12:37;;;;;;;22.92;13.73;;;;;10.10;102042.00;;;;5024898;28;20209;-81
2022/01/16 07:15:05;;;;;;;21.23;12.95;;;;;10.10;102040.00;;;;5011311;28;20718;-81
2022/01/16 07:17:32;;;;;;;20.88;13.20;;;;;10.10;102050.00;;;;5014801;28;20208;-81
2022/01/16 07:19:59;;;;;;;21.05;13.20;;;;;10.10;102058.00;;;;5021643;28;20232;-82
2022/01/16 07:22:26;;;;;;;22.02;14.18;;;;;10.10;102063.00;;;;5019302;28;20201;-81
2022/01/16 07:24:55;;;;;;;24.92;13.30;;;;;10.10;102071.00;;;;5027446;28;20681;-81
2022/01/16 07:27:22;;;;;;;23.30;14.25;;;;;10.10;102074.00;;;;5017824;28;20185;-81
2022/01/16 07:29:50;;;;;;;20.60;12.05;;;;;10.10;102073.00;;;;5013280;28;20208;-81
2022/01/16 07:32:17;;;;;;;22.15;13.75;;;;;10.10;102080.00;;;;5010834;28;20204;-81
2022/01/16 07:34:44;;;;;;;21.48;13.13;;;;;10.10;102075.00;;;;5019300;28;20208;-81
2022/01/16 07:37:11;;;;;;;21.83;13.80;;;;;10.20;102074.00;;;;5027713;28;20207;-80
2022/01/16 07:39:39;;;;;;;21.05;12.63;;;;;10.20;102081.00;;;;5010028;28;20196;-81
2022/01/16 07:42:09;;;;;;;22.85;12.90;;;;;10.20;102095.00;;;;5011077;28;20209;-81
2022/01/16 07:44:36;;;;;;;21.35;13.15;;;;;10.20;102093.00;;;;5016804;28;20197;-81
2022/01/16 07:47:04;;;;;;;24.73;14.15;;;;;10.20;102087.00;;;;5017748;28;20703;-81
2022/01/16 07:49:31;;;;;;;21.15;13.95;;;;;10.20;102081.00;;;;5012260;28;20205;-81
2022/01/16 07:51:58;;;;;;;26.50;13.55;;;;;10.20;102082.00;;;;5008772;28;20201;-78
2022/01/16 07:54:25;;;;;;;20.08;13.20;;;;;10.30;102087.00;;;;5018616;28;20650;-78
2022/01/16 07:56:53;;;;;;;20.75;12.43;;;;;10.30;102087.00;;;;5014518;28;20679;-78
2022/01/16 07:59:21;;;;;;;21.13;12.98;;;;;10.30;102094.00;;;;5012696;28;20204;-79
2022/01/16 08:01:49;;;;;;;20.83;12.75;;;;;10.30;102111.00;;;;5010746;28;20197;-79
2022/01/16 08:04:16;;;;;;;20.70;13.07;;;;;10.40;102103.00;;;;5025597;28;20212;-78
2022/01/16 08:06:43;;;;;;;19.48;12.32;;;;;10.40;102110.00;;;;5022492;28;20316;-78
2022/01/16 08:09:10;;;;;;;19.02;11.75;;;;;10.40;102113.00;;;;5010012;28;20201;-77
2022/01/16 08:11:38;;;;;;;20.63;13.13;;;;;10.40;102102.00;;;;5021980;28;20201;-77
2022/01/16 08:14:05;;;;;;;19.02;12.15;;;;;10.50;102098.00;;;;5012630;28;20213;-78
2022/01/16 08:16:34;;;;;;;19.25;12.45;;;;;10.50;102089.00;;;;5021433;28;20215;-78
2022/01/16 08:19:01;;;;;;;20.20;12.93;;;;;10.50;102095.00;;;;5024356;28;20746;-79
2022/01/16 08:21:28;;;;;;;20.02;12.93;;;;;10.50;102091.00;;;;5011734;28;20201;-79
2022/01/16 08:23:56;;;;;;;19.23;12.43;;;;;10.60;102086.00;;;;5016293;28;20204;-79
2022/01/16 08:26:23;;;;;;;17.85;11.85;;;;;10.60;102085.00;;;;5023849;28;20236;-79
2022/01/16 08:28:50;;;;;;;19.63;12.55;;;;;10.60;102089.00;;;;5025210;28;20200;-77
2022/01/16 08:31:17;;;;;;;17.23;11.60;;;;;10.60;102078.00;;;;5020913;28;20534;-79
2022/01/16 08:33:46;;;;;;;18.90;12.65;;;;;10.60;102080.00;;;;5014952;28;20197;-80
2022/01/16 08:36:13;;;;;;;16.92;11.10;;;;;10.70;102090.00;;;;5016758;28;20212;-79
2022/01/16 08:38:40;;;;;;;18.55;12.48;;;;;10.70;102086.00;;;;5028849;28;20207;-79
2022/01/16 08:41:08;;;;;;;17.40;10.82;;;;;10.70;102090.00;;;;5013556;28;20197;-79
2022/01/16 08:43:35;;;;;;;15.07;10.55;;;;;10.80;102101.00;;;;5014534;28;20569;-80
2022/01/16 08:46:02;;;;;;;16.42;10.40;;;;;10.80;102100.00;;;;5009976;28;20270;-79
2022/01/16 08:48:30;;;;;;;13.05;8.63;;;;;10.80;102110.00;;;;5009088;28;20205;-78
2022/01/16 08:51:00;;;;;;;15.77;9.38;;;;;10.80;102108.00;;;;5009685;28;20220;-79
2022/01/16 08:53:27;;;;;;;13.00;8.38;;;;;10.90;102111.00;;;;5023287;28;20290;-80
2022/01/16 08:55:55;;;;;;;13.05;8.55;;;;;10.90;102120.00;;;;5021035;28;20201;-80
2022/01/16 08:58:22;;;;;;;12.75;9.13;;;;;10.90;102121.00;;;;5017749;28;20196;-79
2022/01/16 09:00:50;;;;;;;13.43;8.55;;;;;10.90;102128.00;;;;5013770;28;20213;-80
2022/01/16 09:03:18;;;;;;;14.40;9.13;;;;;11.00;102130.00;;;;5011685;28;20204;-80
2022/01/16 09:05:46;;;;;;;14.70;8.95;;;;;11.00;102126.00;;;;5012204;28;20231;-81
2022/01/16 09:08:15;;;;;;;15.98;8.38;;;;;11.00;102129.00;;;;5023018;28;20216;-81
2022/01/16 09:10:43;;;;;;;12.65;8.48;;;;;11.10;102125.00;;;;5019722;28;20663;-81
2022/01/16 09:13:12;;;;;;;14.48;9.23;;;;;11.10;102125.00;;;;5023502;28;20225;-81
2022/01/16 09:15:39;;;;;;;12.55;7.72;;;;;11.10;102133.00;;;;5011552;28;20692;-81
2022/01/16 09:18:07;;;;;;;12.70;8.75;;;;;11.10;102142.00;;;;5020956;28;20215;-82
2022/01/16 09:20:35;;;;;;;15.38;8.85;;;;;11.20;102141.00;;;;5017295;28;20240;-80
2022/01/16 09:23:05;;;;;;;12.65;8.15;;;;;11.20;102145.00;;;;5019361;28;20681;-80
2022/01/16 09:25:34;;;;;;;14.57;9.15;;;;;11.30;102154.00;;;;5024366;28;20200;-84
2022/01/16 09:28:01;;;;;;;14.25;8.73;;;;;11.30;102161.00;;;;5020308;28;20204;-80
2022/01/16 09:30:30;;;;;;;16.00;9.70;;;;;11.30;102153.00;;;;5020417;28;20227;-80
2022/01/16 09:32:57;;;;;;;14.23;9.05;;;;;11.30;102160.00;;;;5019594;28;20192;-80
2022/01/16 09:35:25;;;;;;;18.65;10.52;;;;;11.40;102165.00;;;;5040393;28;20666;-79
2022/01/16 09:37:53;;;;;;;18.35;10.20;;;;;11.40;102173.00;;;;5018757;28;20196;-79
2022/01/16 09:40:22;;;;;;;17.92;9.40;;;;;11.40;102187.00;;;;5038853;28;20208;-78
2022/01/16 09:42:52;;;;;;;19.75;10.93;;;;;11.40;102177.00;;;;5015900;28;20205;-78
2022/01/16 09:45:20;;;;;;;17.50;10.27;;;;;11.50;102185.00;;;;5016580;28;20886;-78
2022/01/16 09:47:49;;;;;;;18.35;10.93;;;;;11.50;102179.00;;;;5019754;28;20594;-78
2022/01/16 09:50:19;;;;;;;18.02;11.15;;;;;11.50;102178.00;;;;5018844;28;20212;-78
2022/01/16 09:52:48;;;;;;;17.15;10.30;;;;;11.60;102177.00;;;;5027591;28;20227;-78
2022/01/16 09:55:16;;;;;;;21.35;13.05;;;;;11.60;102180.00;;;;5028367;28;20246;-78
2022/01/16 09:57:43;;;;;;;19.75;10.90;;;;;11.60;102182.00;;;;5022333;28;20185;-79
2022/01/16 10:00:14;;;;;;;18.60;11.48;;;;;11.60;102191.00;;;;5011429;28;20196;-78
2022/01/16 10:02:41;;;;;;;18.52;10.82;;;;;11.70;102189.00;;;;5011034;28;20204;-79
2022/01/16 10:05:28;;;;;;;17.83;11.57;;;;;11.60;102194.00;;;;5019806;28;20208;-79
2022/01/16 10:07:58;;;;;;;19.65;10.98;;;;;11.70;102200.00;;;;5011608;28;20204;-79
2022/01/16 10:10:30;;;;;;;21.70;11.98;;;;;11.70;102198.00;;;;5022097;28;20193;-79
2022/01/16 10:13:05;;;;;;;24.08;12.43;;;;;11.80;102213.00;;;;5021127;28;20220;-79
2022/01/16 10:15:34;;;;;;;22.80;12.02;;;;;11.70;102206.00;;;;5014940;28;20204;-80
2022/01/16 10:18:06;;;;;;;24.83;13.63;;;;;11.80;102214.00;;;;5017305;28;20208;-79
2022/01/16 10:20:42;;;;;;;21.45;12.00;;;;;11.70;102217.00;;;;5020495;28;20220;-78
2022/01/16 10:23:18;;;;;;;24.77;13.63;;;;;11.80;102219.00;;;;5025266;28;20199;-78
2022/01/16 10:25:48;;;;;;;26.70;13.80;;;;;11.80;102226.00;;;;5024760;28;20196;-79
2022/01/16 10:28:18;;;;;;;25.95;12.60;;;;;11.80;102228.00;;;;5027187;28;20666;-79
2022/01/16 10:30:48;;;;;;;21.73;12.68;;;;;11.80;102222.00;;;;5020406;28;20231;-78
2022/01/16 10:33:19;;;;;;;25.15;12.73;;;;;11.80;102231.00;;;;5024071;28;20216;-79
2022/01/16 10:35:48;;;;;;;27.20;14.02;;;;;11.90;102225.00;;;;5030635;28;20236;-79
2022/01/16 10:38:19;;;;;;;24.08;12.45;;;;;11.90;102226.00;;;;5031569;28;20291;-79
2022/01/16 10:40:50;;;;;;;23.40;13.02;;;;;11.90;102231.00;;;;5011695;28;20209;-78
2022/01/16 10:43:21;;;;;;;34.97;14.80;;;;;11.90;102228.00;;;;5019790;28;20204;-78
2022/01/16 10:45:59;;;;;;;27.75;14.38;;;;;11.90;102227.00;;;;5015024;28;20219;-79
2022/01/16 10:48:26;;;;;;;24.75;13.27;;;;;11.90;102226.00;;;;5015667;28;20390;-79
2022/01/16 10:50:54;;;;;;;25.92;14.05;;;;;11.90;102225.00;;;;5024188;28;20199;-78
2022/01/16 10:53:26;;;;;;;27.92;13.13;;;;;11.90;102230.00;;;;5015487;28;20212;-79
2022/01/16 10:55:55;;;;;;;24.95;12.32;;;;;12.00;102230.00;;;;5015796;28;20204;-78
2022/01/16 10:58:25;;;;;;;27.90;13.40;;;;;12.00;102229.00;;;;5011499;28;20208;-79
2022/01/16 11:00:59;;;;;;;25.30;13.07;;;;;12.00;102225.00;;;;5022528;28;20939;-78
2022/01/16 11:03:28;;;;;;;27.40;13.52;;;;;12.00;102229.00;;;;5028838;28;20203;-78
2022/01/16 11:05:56;;;;;;;24.73;13.57;;;;;12.00;102223.00;;;;5021050;28;20203;-78
2022/01/16 11:08:27;;;;;;;30.67;14.48;;;;;12.00;102221.00;;;;5021083;28;20207;-78
2022/01/16 11:10:56;;;;;;;26.02;12.45;;;;;12.00;102229.00;;;;5010450;28;20278;-80
2022/01/16 11:13:27;;;;;;;28.00;13.32;;;;;12.00;102238.00;;;;5024752;28;20292;-79
2022/01/16 11:15:59;;;;;;;32.40;14.38;;;;;12.00;102232.00;;;;5029177;28;20268;-79
2022/01/16 11:18:27;;;;;;;29.55;12.57;;;;;12.00;102242.00;;;;5024426;28;20224;-79
2022/01/16 11:21:07;;;;;;;27.45;13.52;;;;;12.00;102246.00;;;;5013359;28;20233;-79
2022/01/16 11:23:47;;;;;;;26.92;13.07;;;;;12.00;102237.00;;;;5009492;28;20195;-79
2022/01/16 11:26:15;;;;;;;27.35;12.77;;;;;12.10;102239.00;;;;5023490;28;20224;-78
2022/01/16 11:28:43;;;;;;;29.55;13.13;;;;;12.10;102244.00;;;;5028475;28;20714;-78
2022/01/16 11:31:14;;;;;;;28.70;14.35;;;;;12.10;102248.00;;;;5025867;28;20205;-78
2022/01/16 11:33:42;;;;;;;24.05;11.98;;;;;12.10;102249.00;;;;5022048;28;20208;-78
2022/01/16 11:36:13;;;;;;;33.20;13.75;;;;;12.10;102250.00;;;;5015362;28;20196;-78
2022/01/16 11:38:45;;;;;;;32.35;14.75;;;;;12.10;102249.00;;;;5030156;28;20196;-77
2022/01/16 11:41:15;;;;;;;29.58;13.32;;;;;12.10;102250.00;;;;5018654;28;20633;-78
2022/01/16 11:43:46;;;;;;;29.42;12.68;;;;;12.10;102246.00;;;;5010464;28;20267;-78
2022/01/16 11:46:17;;;;;;;26.23;13.32;;;;;12.10;102244.00;;;;5011275;28;20201;-78
2022/01/16 11:48:53;;;;;;;31.75;14.30;;;;;12.10;102252.00;;;;5025720;28;20228;-77
2022/01/16 11:52:03;;;;;;;28.58;13.70;;;;;12.00;102242.00;;;;5029932;28;20211;-78
2022/01/16 11:54:42;;;;;;;25.77;11.90;;;;;12.10;102241.00;;;;5030405;28;20204;-78
2022/01/16 11:57:31;;;;;;;31.73;14.95;;;;;12.00;102240.00;;;;5029891;28;20741;-78
2022/01/16 12:00:11;;;;;;;31.88;13.60;;;;;12.10;102240.00;;;;5009498;28;20544;-78
2022/01/16 12:02:43;;;;;;;27.52;12.70;;;;;12.20;102241.00;;;;5009752;28;20679;-78
2022/01/16 12:05:11;;;;;;;29.08;13.73;;;;;12.20;102243.00;;;;5025183;28;20255;-78
2022/01/16 12:07:57;;;;;;;29.42;13.93;;;;;12.10;102247.00;;;;5029378;28;20224;-78
2022/01/16 12:10:54;;;;;;;28.05;14.10;;;;;12.20;102241.00;;;;5030276;28;20200;-78
2022/01/16 12:13:52;;;;;;;28.00;13.07;;;;;12.20;102238.00;;;;5016567;28;20278;-78
2022/01/16 12:16:42;;;;;;;29.17;13.45;;;;;12.30;102237.00;;;;5001858;28;20216;-78
2022/01/16 12:19:33;;;;;;;30.05;13.32;;;;;12.30;102245.00;;;;5010427;28;20201;-78
2022/01/16 12:22:01;;;;;;;26.48;13.05;;;;;12.40;102242.00;;;;5012640;28;20200;-78
2022/01/16 12:24:36;;;;;;;26.50;13.98;;;;;12.40;102253.00;;;;5030061;28;20219;-78
2022/01/16 12:27:29;;;;;;;29.17;14.10;;;;;12.40;102247.00;;;;5028225;28;20223;-78
2022/01/16 12:30:28;;;;;;;24.95;11.88;;;;;12.40;102247.00;;;;5008434;28;20199;-78
2022/01/16 12:32:58;;;;;;;24.27;13.30;;;;;12.60;102239.00;;;;5029262;28;20193;-78
2022/01/16 12:36:08;;;;;;;27.75;14.70;;;;;12.50;102228.00;;;;5022245;28;20204;-78
2022/01/16 12:39:01;;;;;;;30.80;15.18;;;;;12.60;102248.00;;;;5017525;28;21199;-78
2022/01/16 12:41:36;;;;;;;26.27;13.93;;;;;12.60;102253.00;;;;5009323;28;20219;-78
2022/01/16 12:44:07;;;;;;;28.75;14.57;;;;;12.60;102241.00;;;;5010163;28;20282;-78